Time;durP1;ratioP1;P1;durP2;ratioP2;P2;SDS_P1;SDS_P2;PMS_P1;PMS_P2;Temp;Humidity;BMP_temperature;BMP_pressure;BME280_temperature;BME280_humidity;BME280_pressure;Samples;Min_cycle;Max_cycle;Signal;HPM_P1;HPM_P2
2022/08/08 05:02:37;;;;;;;;;;;15.60;86.10;;;;;;5444449;23;19922;-78
2022/08/08 05:05:04;;;;;;;;;;;15.60;85.80;;;;;;4990400;28;19968;-78
2022/08/08 05:07:32;;;;;;;;;;;15.70;85.00;;;;;;4974801;28;19910;-79
2022/08/08 05:09:57;;;;;;;;;;;15.70;84.00;;;;;;4975777;28;19958;-79
2022/08/08 05:12:23;;;;;;;;;;;15.80;84.80;;;;;;4991948;28;19987;-79
2022/08/08 05:14:50;;;;;;;;;;;15.90;85.10;;;;;;4991515;28;19909;-80
2022/08/08 05:17:16;;;;;;;;;;;15.90;85.30;;;;;;5007841;28;20195;-79
2022/08/08 05:19:48;;;;;;;;;;;16.00;85.00;;;;;;4974734;28;19956;-80
2022/08/08 05:22:16;;;;;;;;;;;16.20;84.80;;;;;;4955453;28;20076;-79
2022/08/08 05:24:45;;;;;;;;;;;16.30;84.60;;;;;;4988335;28;19941;-79
2022/08/08 05:27:10;;;;;;;;;;;16.40;84.10;;;;;;4989557;28;19920;-79
2022/08/08 05:29:38;;;;;;;;;;;16.60;83.90;;;;;;4990131;28;20008;-79
2022/08/08 05:32:06;;;;;;;;;;;16.80;84.10;;;;;;4974925;28;19909;-79
2022/08/08 05:34:46;;;;;;;;;;;16.90;83.00;;;;;;4990345;28;19921;-79
2022/08/08 05:37:25;;;;;;;;;;;17.00;82.60;;;;;;5007595;28;20088;-81
2022/08/08 05:39:55;;;;;;;;;;;17.10;82.10;;;;;;5006949;28;19910;-80
2022/08/08 05:42:30;;;;;;;;;;;17.20;82.00;;;;;;4989279;28;19910;-79
2022/08/08 05:44:56;;;;;;;;;;;17.40;81.60;;;;;;4989610;28;19909;-79
2022/08/08 05:47:39;;;;;;;;;;;17.40;81.30;;;;;;4989314;28;20019;-81
2022/08/08 05:50:15;;;;;;;;;;;17.50;81.90;;;;;;5006133;28;19910;-80
2022/08/08 05:52:41;;;;;;;;;;;17.60;82.00;;;;;;5007170;28;19910;-81
2022/08/08 05:55:09;;;;;;;;;;;17.90;81.20;;;;;;4973648;28;19910;-78
2022/08/08 05:57:37;;;;;;;;;;;17.90;81.20;;;;;;5001165;28;19917;-79
2022/08/08 06:00:09;;;;;;;;;;;18.10;80.60;;;;;;4974491;28;19972;-80
2022/08/08 06:03:12;;;;;;;;;;;18.20;80.40;;;;;;4967136;29;19925;-79
2022/08/08 06:09:11;;;;;;;;;;;18.50;79.50;;;;;;4956588;28;19911;-78
2022/08/08 06:11:37;;;;;;;;;;;18.50;79.70;;;;;;4949998;29;19978;-79
2022/08/08 06:14:06;;;;;;;;;;;18.60;79.90;;;;;;4964466;29;19910;-77
2022/08/08 06:16:42;;;;;;;;;;;18.60;80.00;;;;;;4962880;29;19918;-79
2022/08/08 06:23:02;;;;;;;;;;;18.70;79.90;;;;;;4965013;29;19922;-81
2022/08/08 06:25:41;;;;;;;;;;;18.70;79.70;;;;;;4963374;28;19922;-81
2022/08/08 06:28:34;;;;;;;;;;;18.80;79.60;;;;;;4944296;29;19910;-79
2022/08/08 06:31:10;;;;;;;;;;;18.90;79.50;;;;;;4912204;29;19951;-81
2022/08/08 06:34:20;;;;;;;;;;;;;;;;;;;;;
2022/08/08 06:40:52;;;;;;;;;;;19.20;78.90;;;;;;4885934;29;19976;-80
2022/08/08 06:43:24;;;;;;;;;;;19.50;78.30;;;;;;4869661;29;19916;-79
2022/08/08 06:45:55;;;;;;;;;;;19.60;77.50;;;;;;4894134;29;19982;-80
2022/08/08 06:48:44;;;;;;;;;;;19.80;77.10;;;;;;4943215;29;19990;-83
2022/08/08 06:51:12;;;;;;;;;;;19.70;77.00;;;;;;4901912;29;19950;-80
2022/08/08 06:53:42;;;;;;;;;;;19.80;77.20;;;;;;4942721;29;19924;-81
2022/08/08 06:56:10;;;;;;;;;;;20.00;76.80;;;;;;4937752;29;19977;-81
2022/08/08 06:58:39;;;;;;;;;;;20.10;76.70;;;;;;4925606;29;20077;-78
2022/08/08 07:01:06;;;;;;;;;;;20.30;75.90;;;;;;4926029;29;19907;-79
2022/08/08 07:03:58;;;;;;;;;;;20.50;75.10;;;;;;4925534;29;19919;-79
2022/08/08 07:06:28;;;;;;;;;;;20.60;74.70;;;;;;4970607;28;19914;-80
2022/08/08 07:09:01;;;;;;;;;;;20.80;73.80;;;;;;4966737;29;19950;-81
2022/08/08 07:14:31;;;;;;;;;;;20.90;73.90;;;;;;4946212;29;19934;-79
2022/08/08 07:17:05;;;;;;;;;;;21.10;72.70;;;;;;4946898;29;19947;-80
2022/08/08 07:19:37;;;;;;;;;;;21.20;73.20;;;;;;4946532;29;20272;-79
2022/08/08 07:22:26;;;;;;;;;;;21.40;72.20;;;;;;4948943;29;19918;-80
2022/08/08 07:25:02;;;;;;;;;;;21.60;72.40;;;;;;4946855;29;19933;-79
2022/08/08 07:30:22;;;;;;;;;;;21.80;72.40;;;;;;4960416;29;19917;-79
2022/08/08 07:32:48;;;;;;;;;;;21.80;72.10;;;;;;4965124;29;20109;-79
2022/08/08 07:35:27;;;;;;;;;;;21.90;72.30;;;;;;4965504;28;19918;-80
2022/08/08 07:37:54;;;;;;;;;;;22.00;72.20;;;;;;4963888;29;20113;-80
2022/08/08 07:40:26;;;;;;;;;;;22.10;71.80;;;;;;4964481;29;19910;-79
2022/08/08 07:42:53;;;;;;;;;;;22.20;71.60;;;;;;4965165;29;20013;-79
2022/08/08 07:45:19;;;;;;;;;;;22.30;71.50;;;;;;4965880;28;19929;-79
2022/08/08 07:47:46;;;;;;;;;;;22.30;72.00;;;;;;4981629;28;19961;-81
2022/08/08 07:50:11;;;;;;;;;;;22.50;71.40;;;;;;4966392;29;19910;-80
2022/08/08 07:52:43;;;;;;;;;;;22.60;71.10;;;;;;4964373;29;20105;-77
2022/08/08 07:55:12;;;;;;;;;;;22.80;71.10;;;;;;4965654;29;19910;-77
2022/08/08 07:57:50;;;;;;;;;;;22.90;70.90;;;;;;4964458;28;19925;-74
2022/08/08 08:00:25;;;;;;;;;;;23.10;70.30;;;;;;4964542;29;19910;-74
2022/08/08 08:03:09;;;;;;;;;;;23.20;70.10;;;;;;4957282;28;19918;-77
2022/08/08 08:05:37;;;;;;;;;;;23.30;69.70;;;;;;4964008;29;20111;-76
2022/08/08 08:08:03;;;;;;;;;;;23.40;69.60;;;;;;4964505;29;20223;-76
2022/08/08 08:10:33;;;;;;;;;;;23.40;69.60;;;;;;4963856;29;19977;-76
2022/08/08 08:13:22;;;;;;;;;;;23.50;69.30;;;;;;4964593;29;20050;-74
2022/08/08 08:16:18;;;;;;;;;;;23.60;68.90;;;;;;4964379;29;20196;-75
2022/08/08 08:18:52;;;;;;;;;;;23.60;69.10;;;;;;4952816;28;19958;-76
2022/08/08 08:21:19;;;;;;;;;;;23.70;68.90;;;;;;4964089;29;19914;-76
2022/08/08 08:23:46;;;;;;;;;;;23.80;69.00;;;;;;4964392;29;19917;-76
2022/08/08 08:26:13;;;;;;;;;;;23.90;68.50;;;;;;4964164;29;19918;-76
2022/08/08 08:28:40;;;;;;;;;;;24.00;67.70;;;;;;4963652;29;19958;-76
2022/08/08 08:31:07;;;;;;;;;;;24.00;67.90;;;;;;4976133;28;19915;-76
2022/08/08 08:33:36;;;;;;;;;;;24.10;67.60;;;;;;4944780;29;19911;-76
2022/08/08 08:36:06;;;;;;;;;;;24.20;67.50;;;;;;4929212;29;19986;-76
2022/08/08 08:38:32;;;;;;;;;;;24.30;66.50;;;;;;4944199;29;19993;-75
2022/08/08 08:41:05;;;;;;;;;;;24.40;66.20;;;;;;4944871;29;19907;-76
2022/08/08 08:43:33;;;;;;;;;;;24.40;66.10;;;;;;4943962;29;19911;-76
2022/08/08 08:46:00;;;;;;;;;;;24.40;65.60;;;;;;4944702;29;19918;-76
2022/08/08 08:48:26;;;;;;;;;;;24.40;65.80;;;;;;4944149;29;19981;-76
2022/08/08 08:50:54;;;;;;;;;;;24.30;65.70;;;;;;4945201;29;19910;-77
2022/08/08 08:53:21;;;;;;;;;;;24.40;65.60;;;;;;4944645;29;19907;-77
2022/08/08 08:55:47;;;;;;;;;;;24.60;65.60;;;;;;4945330;29;19911;-77
2022/08/08 08:58:38;;;;;;;;;;;24.70;65.00;;;;;;4945636;29;19949;-77
2022/08/08 09:01:05;;;;;;;;;;;24.80;64.50;;;;;;4937573;29;19998;-77
2022/08/08 09:03:32;;;;;;;;;;;24.90;64.30;;;;;;4958857;29;19919;-76
2022/08/08 09:05:58;;;;;;;;;;;25.00;63.80;;;;;;4964985;28;19918;-77
2022/08/08 09:08:24;;;;;;;;;;;25.00;63.50;;;;;;4964220;28;19918;-77
2022/08/08 09:10:50;;;;;;;;;;;25.10;63.10;;;;;;4978345;28;19918;-77
2022/08/08 09:13:16;;;;;;;;;;;25.10;63.40;;;;;;4982604;28;19972;-78
2022/08/08 09:15:43;;;;;;;;;;;25.20;63.60;;;;;;4983121;28;19964;-76
2022/08/08 09:18:10;;;;;;;;;;;25.30;63.20;;;;;;4982951;28;20262;-76
2022/08/08 09:20:36;;;;;;;;;;;25.30;63.30;;;;;;4982174;28;19978;-77
2022/08/08 09:23:03;;;;;;;;;;;25.40;62.90;;;;;;4983137;28;20139;-77
2022/08/08 09:25:30;;;;;;;;;;;25.50;62.90;;;;;;4982588;28;19950;-78
2022/08/08 09:27:56;;;;;;;;;;;25.50;62.70;;;;;;4966769;28;19910;-77
2022/08/08 09:30:23;;;;;;;;;;;25.50;62.50;;;;;;4982556;28;19910;-76
2022/08/08 09:32:50;;;;;;;;;;;25.70;62.40;;;;;;4965765;28;19923;-77
2022/08/08 09:35:19;;;;;;;;;;;25.70;60.50;;;;;;4964665;28;19921;-77
2022/08/08 09:37:52;;;;;;;;;;;25.90;60.90;;;;;;4963161;29;19917;-78
2022/08/08 09:40:25;;;;;;;;;;;26.00;59.30;;;;;;4963215;29;19997;-78
2022/08/08 09:43:08;;;;;;;;;;;26.30;58.50;;;;;;4963439;29;19927;-77
2022/08/08 09:45:52;;;;;;;;;;;26.30;56.50;;;;;;4964063;28;19989;-76
2022/08/08 09:48:17;;;;;;;;;;;26.40;56.40;;;;;;4962884;29;19960;-77
2022/08/08 09:50:46;;;;;;;;;;;26.30;55.30;;;;;;4962406;29;20188;-76
2022/08/08 09:53:14;;;;;;;;;;;26.40;55.40;;;;;;4964479;29;19934;-78
2022/08/08 09:55:40;;;;;;;;;;;26.30;56.10;;;;;;4963879;28;19949;-77
2022/08/08 09:58:07;;;;;;;;;;;26.50;56.90;;;;;;4963050;29;19914;-76
2022/08/08 10:00:35;;;;;;;;;;;26.60;56.00;;;;;;4963611;29;19977;-78
2022/08/08 10:03:01;;;;;;;;;;;26.70;55.70;;;;;;4973288;28;19925;-77
2022/08/08 10:05:28;;;;;;;;;;;26.70;55.80;;;;;;4965274;28;19918;-77
2022/08/08 10:07:54;;;;;;;;;;;26.70;56.30;;;;;;4965952;28;19937;-77
2022/08/08 10:10:28;;;;;;;;;;;26.70;56.20;;;;;;4994941;28;19910;-79
2022/08/08 10:12:55;;;;;;;;;;;26.90;56.20;;;;;;5002782;28;19916;-79
2022/08/08 10:15:21;;;;;;;;;;;27.10;56.00;;;;;;5003019;28;19910;-80
2022/08/08 10:17:48;;;;;;;;;;;27.20;56.70;;;;;;5001217;28;20343;-78
2022/08/08 10:20:14;;;;;;;;;;;27.40;57.20;;;;;;4986422;28;19933;-80
2022/08/08 10:22:46;;;;;;;;;;;27.50;57.30;;;;;;5002705;28;19913;-80
2022/08/08 10:25:14;;;;;;;;;;;27.50;57.20;;;;;;5002702;28;19985;-78
2022/08/08 10:27:41;;;;;;;;;;;27.60;56.70;;;;;;5002266;28;20073;-78
2022/08/08 10:30:07;;;;;;;;;;;27.70;57.10;;;;;;5002784;28;19910;-78
2022/08/08 10:32:39;;;;;;;;;;;27.80;56.90;;;;;;4986899;28;19906;-79
2022/08/08 10:35:07;;;;;;;;;;;27.80;56.90;;;;;;4949634;28;19957;-79
2022/08/08 10:37:33;;;;;;;;;;;27.60;56.80;;;;;;4982220;28;19981;-78
2022/08/08 10:40:00;;;;;;;;;;;27.50;57.10;;;;;;4983177;28;19945;-77
2022/08/08 10:42:33;;;;;;;;;;;27.50;56.90;;;;;;4965747;28;19910;-78
2022/08/08 10:45:01;;;;;;;;;;;27.60;56.90;;;;;;4982659;28;19966;-78
2022/08/08 10:47:27;;;;;;;;;;;27.70;56.40;;;;;;4949564;28;19918;-76
2022/08/08 10:50:00;;;;;;;;;;;28.00;55.10;;;;;;4966101;28;20080;-78
2022/08/08 10:52:39;;;;;;;;;;;28.20;53.60;;;;;;4982656;28;19910;-78
2022/08/08 10:55:16;;;;;;;;;;;28.50;54.20;;;;;;5001992;28;19910;-78
2022/08/08 10:57:43;;;;;;;;;;;28.40;52.10;;;;;;4985135;28;19973;-77
2022/08/08 11:00:11;;;;;;;;;;;28.60;52.90;;;;;;5003266;28;19909;-78
2022/08/08 11:02:37;;;;;;;;;;;28.70;52.70;;;;;;5002441;28;20227;-78
2022/08/08 11:05:04;;;;;;;;;;;28.50;52.20;;;;;;4985790;28;19916;-79
2022/08/08 11:07:31;;;;;;;;;;;28.50;52.90;;;;;;5002332;28;19918;-78
2022/08/08 11:10:05;;;;;;;;;;;28.70;53.20;;;;;;5002519;28;19910;-77
2022/08/08 11:12:43;;;;;;;;;;;28.90;52.50;;;;;;5001726;28;19920;-80
2022/08/08 11:15:11;;;;;;;;;;;28.90;52.30;;;;;;5002649;28;20255;-78
2022/08/08 11:17:37;;;;;;;;;;;28.90;52.20;;;;;;5002636;28;19910;-77
2022/08/08 11:20:03;;;;;;;;;;;29.20;51.50;;;;;;5003254;28;19914;-77
2022/08/08 11:22:29;;;;;;;;;;;29.60;50.60;;;;;;5002460;28;20042;-78
2022/08/08 11:25:00;;;;;;;;;;;30.00;49.80;;;;;;5001575;28;19910;-79
2022/08/08 11:27:28;;;;;;;;;;;30.20;48.40;;;;;;5003495;28;19917;-78
2022/08/08 11:29:56;;;;;;;;;;;30.50;48.30;;;;;;5003137;28;19956;-78
2022/08/08 11:32:24;;;;;;;;;;;30.90;47.70;;;;;;4989005;28;19917;-78
2022/08/08 11:34:54;;;;;;;;;;;31.40;47.10;;;;;;4983489;28;19918;-77
2022/08/08 11:37:21;;;;;;;;;;;31.80;46.80;;;;;;4983558;28;19917;-80
2022/08/08 11:39:47;;;;;;;;;;;32.10;46.20;;;;;;4983150;28;19925;-78
2022/08/08 11:42:13;;;;;;;;;;;32.20;45.80;;;;;;4983779;28;20100;-78
2022/08/08 11:44:39;;;;;;;;;;;32.80;45.60;;;;;;4983030;28;19910;-77
2022/08/08 11:47:05;;;;;;;;;;;33.30;45.40;;;;;;4983254;28;20001;-77
2022/08/08 11:49:32;;;;;;;;;;;33.80;45.10;;;;;;4982998;28;20192;-77
2022/08/08 11:51:57;;;;;;;;;;;34.80;44.30;;;;;;4983307;28;19981;-77
2022/08/08 11:54:30;;;;;;;;;;;35.50;43.40;;;;;;4985726;28;20156;-76
2022/08/08 11:57:07;;;;;;;;;;;35.20;43.00;;;;;;4985850;28;19933;-77
2022/08/08 11:59:33;;;;;;;;;;;35.60;42.70;;;;;;4985841;28;19910;-76
2022/08/08 12:02:05;;;;;;;;;;;36.80;42.60;;;;;;4986127;28;20153;-75
2022/08/08 12:04:31;;;;;;;;;;;37.80;42.00;;;;;;4986401;28;20181;-76
2022/08/08 12:07:07;;;;;;;;;;;38.50;40.70;;;;;;4986242;28;19929;-76
2022/08/08 12:09:33;;;;;;;;;;;39.00;40.60;;;;;;4990640;28;19910;-79
2022/08/08 12:11:59;;;;;;;;;;;39.70;40.10;;;;;;5006343;28;19910;-77
2022/08/08 12:14:25;;;;;;;;;;;40.20;39.70;;;;;;5006057;28;19957;-78
2022/08/08 12:16:52;;;;;;;;;;;40.60;39.60;;;;;;5005638;28;19920;-78
2022/08/08 12:19:19;;;;;;;;;;;40.90;39.50;;;;;;4988560;28;19988;-78
2022/08/08 12:21:44;;;;;;;;;;;40.90;39.00;;;;;;5005310;28;19985;-76
2022/08/08 12:24:12;;;;;;;;;;;41.70;38.90;;;;;;5005992;28;19918;-78
2022/08/08 12:26:44;;;;;;;;;;;41.50;38.40;;;;;;5005385;28;20191;-77
2022/08/08 12:29:29;;;;;;;;;;;41.10;38.70;;;;;;5006049;28;19953;-77
2022/08/08 12:32:01;;;;;;;;;;;40.90;38.30;;;;;;4994302;28;19918;-79
2022/08/08 12:34:33;;;;;;;;;;;41.70;38.40;;;;;;4968791;28;19912;-77
2022/08/08 12:37:04;;;;;;;;;;;41.70;38.30;;;;;;4985963;28;20216;-78
2022/08/08 12:39:30;;;;;;;;;;;42.40;38.40;;;;;;4985795;28;19941;-78
2022/08/08 12:41:59;;;;;;;;;;;42.60;38.30;;;;;;4985631;28;20168;-78
2022/08/08 12:44:26;;;;;;;;;;;43.40;37.80;;;;;;4986238;28;19910;-78
2022/08/08 12:46:56;;;;;;;;;;;43.20;37.50;;;;;;4985352;28;20085;-78
2022/08/08 12:49:25;;;;;;;;;;;43.80;37.10;;;;;;4986019;28;19932;-78
2022/08/08 12:51:52;;;;;;;;;;;44.20;37.30;;;;;;4985467;28;19942;-78
2022/08/08 12:54:22;;;;;;;;;;;44.70;37.10;;;;;;4984838;28;19918;-79
2022/08/08 12:56:48;;;;;;;;;;;44.90;36.40;;;;;;4985196;28;19925;-77
2022/08/08 12:59:23;;;;;;;;;;;43.80;36.10;;;;;;4985516;28;20017;-78
2022/08/08 13:01:50;;;;;;;;;;;43.90;36.30;;;;;;4985249;28;19933;-78
2022/08/08 13:04:17;;;;;;;;;;;44.80;36.30;;;;;;4985459;28;19910;-78
2022/08/08 13:06:53;;;;;;;;;;;44.70;36.10;;;;;;4985037;28;19910;-79
2022/08/08 13:09:28;;;;;;;;;;;45.00;36.20;;;;;;4988572;28;19911;-78
2022/08/08 13:11:54;;;;;;;;;;;45.00;36.00;;;;;;5004778;28;20016;-78
2022/08/08 13:14:20;;;;;;;;;;;45.30;36.40;;;;;;5004597;28;19980;-79
2022/08/08 13:16:47;;;;;;;;;;;44.90;35.60;;;;;;5004326;28;19925;-78
2022/08/08 13:19:12;;;;;;;;;;;45.30;35.80;;;;;;5004847;28;19997;-78
2022/08/08 13:21:42;;;;;;;;;;;46.30;35.70;;;;;;5004220;28;20245;-79
2022/08/08 13:24:07;;;;;;;;;;;46.40;35.40;;;;;;5004769;28;19910;-78
2022/08/08 13:26:33;;;;;;;;;;;46.30;35.00;;;;;;5004899;28;19977;-77
2022/08/08 13:29:07;;;;;;;;;;;47.10;35.20;;;;;;5004237;28;19984;-77
2022/08/08 13:31:47;;;;;;;;;;;47.20;35.10;;;;;;4997257;28;19973;-78
2022/08/08 13:34:19;;;;;;;;;;;47.60;34.50;;;;;;4984942;28;20104;-77
2022/08/08 13:36:45;;;;;;;;;;;48.60;34.70;;;;;;4967043;28;19918;-76
2022/08/08 13:39:13;;;;;;;;;;;47.70;34.70;;;;;;4985047;28;20028;-77
2022/08/08 13:41:38;;;;;;;;;;;47.50;34.50;;;;;;4984641;28;19910;-77
2022/08/08 13:44:06;;;;;;;;;;;47.70;34.60;;;;;;4967659;28;19933;-78
2022/08/08 13:46:31;;;;;;;;;;;47.70;34.70;;;;;;4985347;28;19914;-78
2022/08/08 13:48:57;;;;;;;;;;;47.50;34.20;;;;;;4985651;28;19910;-78
2022/08/08 13:51:23;;;;;;;;;;;47.60;34.30;;;;;;4967555;28;19981;-77
2022/08/08 13:53:49;;;;;;;;;;;48.90;33.90;;;;;;4984066;28;19910;-78
2022/08/08 13:56:15;;;;;;;;;;;49.20;33.80;;;;;;4984567;28;20192;-79
2022/08/08 13:58:50;;;;;;;;;;;48.80;33.90;;;;;;4983951;28;19910;-78
2022/08/08 14:01:16;;;;;;;;;;;49.60;33.80;;;;;;4985034;28;20007;-79
2022/08/08 14:03:55;;;;;;;;;;;49.60;34.00;;;;;;4984336;28;19918;-79
2022/08/08 14:06:22;;;;;;;;;;;50.20;33.60;;;;;;4984741;28;20252;-78
2022/08/08 14:08:48;;;;;;;;;;;50.10;33.60;;;;;;4967112;28;19913;-79
2022/08/08 14:11:15;;;;;;;;;;;50.30;34.10;;;;;;5003486;28;19941;-78
2022/08/08 14:13:41;;;;;;;;;;;50.20;33.60;;;;;;5003620;28;19910;-79
2022/08/08 14:16:06;;;;;;;;;;;49.50;33.00;;;;;;5003296;28;19918;-80
2022/08/08 14:18:32;;;;;;;;;;;50.50;33.00;;;;;;5003883;28;19971;-79
2022/08/08 14:21:02;;;;;;;;;;;50.60;33.20;;;;;;5003159;28;19910;-77
2022/08/08 14:23:38;;;;;;;;;;;50.70;32.90;;;;;;5003394;28;19910;-79
2022/08/08 14:26:03;;;;;;;;;;;50.90;32.80;;;;;;5003278;28;20042;-78
2022/08/08 14:28:29;;;;;;;;;;;49.60;32.90;;;;;;5003275;28;19910;-79
2022/08/08 14:31:05;;;;;;;;;;;49.10;33.20;;;;;;5000521;28;19912;-78
2022/08/08 14:33:30;;;;;;;;;;;49.70;33.30;;;;;;4983657;28;19917;-77
2022/08/08 14:36:09;;;;;;;;;;;50.70;33.50;;;;;;4983538;28;19918;-78
2022/08/08 14:38:36;;;;;;;;;;;51.50;32.80;;;;;;4983753;28;20005;-79
2022/08/08 14:41:10;;;;;;;;;;;51.40;32.30;;;;;;4983302;28;19940;-78
2022/08/08 14:43:50;;;;;;;;;;;51.90;32.50;;;;;;4983677;28;19910;-78
2022/08/08 14:46:17;;;;;;;;;;;51.50;32.10;;;;;;4984179;28;19910;-79
2022/08/08 14:48:45;;;;;;;;;;;50.70;32.10;;;;;;4950231;28;20158;-81
2022/08/08 14:51:12;;;;;;;;;;;50.70;32.40;;;;;;4983764;28;20251;-79
2022/08/08 14:53:38;;;;;;;;;;;50.30;32.40;;;;;;4983740;28;19910;-79
2022/08/08 14:56:03;;;;;;;;;;;50.50;32.60;;;;;;4983293;28;20081;-80
2022/08/08 14:58:29;;;;;;;;;;;50.30;32.30;;;;;;4983552;28;19910;-79
2022/08/08 15:00:55;;;;;;;;;;;50.80;32.10;;;;;;4983042;28;19914;-79
2022/08/08 15:03:21;;;;;;;;;;;50.70;32.20;;;;;;4983110;28;19958;-78
2022/08/08 15:05:46;;;;;;;;;;;52.00;32.40;;;;;;4982910;28;19981;-81
2022/08/08 15:08:12;;;;;;;;;;;52.10;31.50;;;;;;4983913;28;19910;-80
2022/08/08 15:10:38;;;;;;;;;;;51.90;32.00;;;;;;4997360;28;19910;-78
2022/08/08 15:13:04;;;;;;;;;;;51.40;32.10;;;;;;5002975;28;19925;-79
2022/08/08 15:15:29;;;;;;;;;;;51.70;32.20;;;;;;5003265;28;20295;-78
2022/08/08 15:17:55;;;;;;;;;;;52.30;31.70;;;;;;5003024;28;20144;-77
2022/08/08 15:20:21;;;;;;;;;;;50.30;31.80;;;;;;4985868;28;19956;-78
2022/08/08 15:22:47;;;;;;;;;;;49.00;32.50;;;;;;4985539;28;19910;-78
2022/08/08 15:25:16;;;;;;;;;;;48.90;32.70;;;;;;5003268;28;19913;-78
2022/08/08 15:27:41;;;;;;;;;;;49.20;32.50;;;;;;5003703;28;19988;-77
2022/08/08 15:30:07;;;;;;;;;;;49.50;32.60;;;;;;5007131;28;19910;-77
2022/08/08 15:32:33;;;;;;;;;;;49.90;32.30;;;;;;4991109;28;19949;-77
2022/08/08 15:34:59;;;;;;;;;;;49.10;32.40;;;;;;4986915;28;19914;-77
2022/08/08 15:37:25;;;;;;;;;;;48.40;32.70;;;;;;4986920;28;19918;-78
2022/08/08 15:39:51;;;;;;;;;;;48.40;33.00;;;;;;4986370;28;20148;-78
2022/08/08 15:42:17;;;;;;;;;;;49.30;32.40;;;;;;4987080;28;20255;-77
2022/08/08 15:44:43;;;;;;;;;;;49.90;32.40;;;;;;4987163;28;19949;-78
2022/08/08 15:47:11;;;;;;;;;;;50.30;31.90;;;;;;4969894;28;19910;-79
2022/08/08 15:49:40;;;;;;;;;;;50.30;32.00;;;;;;4969768;28;19917;-78
2022/08/08 15:52:07;;;;;;;;;;;50.00;32.00;;;;;;4986440;28;20245;-75
2022/08/08 15:54:33;;;;;;;;;;;49.90;32.20;;;;;;4986788;28;20192;-78
2022/08/08 15:56:59;;;;;;;;;;;49.80;32.10;;;;;;4986381;28;19914;-77
2022/08/08 15:59:25;;;;;;;;;;;48.70;32.10;;;;;;4985692;28;19918;-76
2022/08/08 16:01:51;;;;;;;;;;;48.60;32.30;;;;;;4969058;28;19977;-78
2022/08/08 16:04:18;;;;;;;;;;;48.90;32.50;;;;;;4969920;28;19910;-77
2022/08/08 16:06:53;;;;;;;;;;;49.70;32.00;;;;;;4986522;28;19917;-76
2022/08/08 16:09:19;;;;;;;;;;;50.30;32.00;;;;;;4989758;28;19909;-79
2022/08/08 16:11:45;;;;;;;;;;;50.40;31.80;;;;;;4988643;28;20190;-76
2022/08/08 16:14:11;;;;;;;;;;;50.30;31.70;;;;;;5005660;28;19905;-75
2022/08/08 16:16:38;;;;;;;;;;;50.30;31.80;;;;;;5005812;28;20110;-77
2022/08/08 16:19:04;;;;;;;;;;;50.40;31.60;;;;;;5005475;28;20103;-77
2022/08/08 16:21:30;;;;;;;;;;;49.40;31.80;;;;;;5005694;28;19921;-78
2022/08/08 16:23:57;;;;;;;;;;;49.50;32.10;;;;;;5005399;28;19910;-75
2022/08/08 16:26:26;;;;;;;;;;;48.90;32.10;;;;;;5005447;28;19933;-77
2022/08/08 16:28:52;;;;;;;;;;;48.50;32.30;;;;;;4987898;28;20100;-78
2022/08/08 16:31:20;;;;;;;;;;;48.40;32.30;;;;;;4982942;28;19906;-77
2022/08/08 16:33:48;;;;;;;;;;;47.70;32.20;;;;;;4968858;28;20187;-78
2022/08/08 16:36:14;;;;;;;;;;;46.70;32.60;;;;;;4985153;28;19918;-76
2022/08/08 16:38:40;;;;;;;;;;;46.80;33.00;;;;;;4985696;28;20166;-77
2022/08/08 16:41:05;;;;;;;;;;;46.50;32.70;;;;;;4985475;28;19949;-77
2022/08/08 16:43:31;;;;;;;;;;;47.00;32.80;;;;;;4985546;28;19956;-77
2022/08/08 16:45:57;;;;;;;;;;;46.80;32.40;;;;;;4985217;28;19910;-79
2022/08/08 16:48:23;;;;;;;;;;;46.40;32.40;;;;;;4968564;28;20132;-77
2022/08/08 16:50:52;;;;;;;;;;;46.80;32.50;;;;;;4985721;28;19910;-77
2022/08/08 16:53:17;;;;;;;;;;;46.50;32.50;;;;;;4985794;28;19906;-78
2022/08/08 16:55:43;;;;;;;;;;;45.40;32.90;;;;;;4968930;28;19997;-76
2022/08/08 16:58:09;;;;;;;;;;;43.30;34.10;;;;;;4985516;28;20260;-76
2022/08/08 17:00:35;;;;;;;;;;;41.40;34.70;;;;;;4985721;28;20132;-77
2022/08/08 17:03:01;;;;;;;;;;;38.90;36.00;;;;;;4984896;28;19938;-78
2022/08/08 17:05:26;;;;;;;;;;;37.40;36.80;;;;;;4985672;28;19910;-77
2022/08/08 17:07:52;;;;;;;;;;;36.60;37.50;;;;;;4985184;28;19914;-77
2022/08/08 17:10:17;;;;;;;;;;;35.80;37.60;;;;;;4996358;28;19917;-78
2022/08/08 17:12:43;;;;;;;;;;;34.80;38.00;;;;;;5004871;28;20200;-79
2022/08/08 17:15:10;;;;;;;;;;;34.10;38.70;;;;;;5004714;28;20069;-76
2022/08/08 17:17:38;;;;;;;;;;;33.70;39.20;;;;;;4971322;28;20121;-76
2022/08/08 17:20:04;;;;;;;;;;;33.40;39.50;;;;;;5004106;28;19909;-78
2022/08/08 17:22:30;;;;;;;;;;;34.00;39.20;;;;;;5004442;28;19933;-78
2022/08/08 17:24:59;;;;;;;;;;;34.10;38.80;;;;;;5004217;28;20200;-77
2022/08/08 17:27:24;;;;;;;;;;;33.80;39.60;;;;;;5003628;28;20191;-77
2022/08/08 17:29:50;;;;;;;;;;;33.40;39.30;;;;;;5004571;28;19960;-78
2022/08/08 17:32:16;;;;;;;;;;;33.00;40.20;;;;;;4957281;28;19917;-76
2022/08/08 17:34:41;;;;;;;;;;;32.50;39.80;;;;;;4967396;28;19922;-75
2022/08/08 17:37:07;;;;;;;;;;;32.20;40.10;;;;;;4984485;28;19922;-76
2022/08/08 17:39:32;;;;;;;;;;;32.20;40.20;;;;;;4967777;28;19912;-75
2022/08/08 17:41:58;;;;;;;;;;;32.30;40.40;;;;;;4984487;28;19949;-76
2022/08/08 17:44:24;;;;;;;;;;;32.70;40.20;;;;;;4984791;28;19911;-75
2022/08/08 17:46:53;;;;;;;;;;;33.30;39.40;;;;;;4967244;28;19910;-75
2022/08/08 17:49:21;;;;;;;;;;;33.90;38.80;;;;;;4985464;28;20204;-77
2022/08/08 17:51:47;;;;;;;;;;;34.70;38.20;;;;;;4984909;28;19985;-78
2022/08/08 17:54:13;;;;;;;;;;;35.50;37.90;;;;;;4984224;28;20013;-78
2022/08/08 17:56:39;;;;;;;;;;;35.50;37.60;;;;;;4984363;28;19914;-77
2022/08/08 17:59:04;;;;;;;;;;;35.00;38.20;;;;;;4984245;28;19910;-78
2022/08/08 18:01:48;;;;;;;;;;;34.40;38.40;;;;;;4967160;28;19921;-78
2022/08/08 18:04:15;;;;;;;;;;;33.50;38.90;;;;;;4983852;28;19929;-78
2022/08/08 18:06:41;;;;;;;;;;;32.80;39.90;;;;;;4984327;28;19914;-77
2022/08/08 18:09:07;;;;;;;;;;;32.10;40.30;;;;;;4985034;28;19916;-77
2022/08/08 18:11:32;;;;;;;;;;;31.50;40.90;;;;;;5003791;28;19910;-76
2022/08/08 18:13:58;;;;;;;;;;;30.90;41.40;;;;;;5003084;28;19905;-76
2022/08/08 18:16:24;;;;;;;;;;;30.50;42.10;;;;;;5003244;28;19918;-76
2022/08/08 18:18:53;;;;;;;;;;;30.10;42.40;;;;;;5003971;28;19929;-75
2022/08/08 18:21:18;;;;;;;;;;;29.80;42.60;;;;;;5003181;28;19910;-75
2022/08/08 18:23:44;;;;;;;;;;;29.60;43.20;;;;;;5003785;28;20133;-77
2022/08/08 18:26:10;;;;;;;;;;;29.40;43.50;;;;;;5003090;28;19917;-76
2022/08/08 18:28:35;;;;;;;;;;;29.20;43.90;;;;;;5003509;28;19906;-75
2022/08/08 18:31:01;;;;;;;;;;;29.10;44.10;;;;;;4999723;28;20219;-75
2022/08/08 18:33:27;;;;;;;;;;;28.90;44.30;;;;;;4983792;28;19906;-76
2022/08/08 18:35:53;;;;;;;;;;;28.80;44.60;;;;;;4966583;28;19992;-76
2022/08/08 18:38:18;;;;;;;;;;;28.60;44.70;;;;;;4983335;28;20153;-77
2022/08/08 18:40:44;;;;;;;;;;;28.50;45.00;;;;;;4966622;28;19914;-77
2022/08/08 18:43:10;;;;;;;;;;;28.30;45.30;;;;;;4983234;28;19941;-75
2022/08/08 18:45:35;;;;;;;;;;;28.20;45.40;;;;;;4983919;28;19910;-76
2022/08/08 18:48:01;;;;;;;;;;;28.10;45.80;;;;;;4983846;28;19968;-75
2022/08/08 18:50:26;;;;;;;;;;;28.00;46.10;;;;;;4966231;28;19910;-75
2022/08/08 18:52:52;;;;;;;;;;;27.80;46.20;;;;;;4983491;28;19910;-77
2022/08/08 18:55:18;;;;;;;;;;;27.70;47.00;;;;;;4983407;28;20053;-78
2022/08/08 18:57:43;;;;;;;;;;;27.60;46.90;;;;;;4996338;28;19972;-77
2022/08/08 19:00:17;;;;;;;;;;;27.50;47.00;;;;;;5002513;28;19909;-75
2022/08/08 19:02:43;;;;;;;;;;;27.40;47.60;;;;;;5005095;28;19917;-75
2022/08/08 19:05:09;;;;;;;;;;;27.20;47.50;;;;;;5006595;28;19909;-76
2022/08/08 19:07:36;;;;;;;;;;;27.10;47.70;;;;;;5007297;28;19909;-73
2022/08/08 19:10:02;;;;;;;;;;;27.00;47.90;;;;;;5006998;28;20004;-71
2022/08/08 19:12:38;;;;;;;;;;;26.90;47.90;;;;;;5006814;28;19910;-73
2022/08/08 19:15:04;;;;;;;;;;;26.80;48.10;;;;;;5006575;28;19914;-71
2022/08/08 19:17:30;;;;;;;;;;;26.70;48.20;;;;;;5006920;28;19941;-73
2022/08/08 19:20:05;;;;;;;;;;;26.60;48.40;;;;;;5007132;28;20188;-75
2022/08/08 19:22:31;;;;;;;;;;;26.50;48.50;;;;;;5006817;28;19952;-73
2022/08/08 19:24:57;;;;;;;;;;;26.40;48.80;;;;;;5006728;28;19910;-72
2022/08/08 19:27:24;;;;;;;;;;;26.30;49.00;;;;;;5006592;28;20136;-72
2022/08/08 19:29:50;;;;;;;;;;;26.20;49.10;;;;;;5006975;28;19972;-76
2022/08/08 19:32:15;;;;;;;;;;;26.10;49.40;;;;;;4975366;28;20196;-73
2022/08/08 19:34:41;;;;;;;;;;;26.00;50.00;;;;;;4986889;28;19914;-72
2022/08/08 19:37:07;;;;;;;;;;;25.80;50.30;;;;;;4986319;28;19922;-73
2022/08/08 19:39:33;;;;;;;;;;;25.70;50.40;;;;;;4987167;28;19956;-72
2022/08/08 19:41:58;;;;;;;;;;;25.60;50.60;;;;;;4987249;28;19910;-74
2022/08/08 19:44:24;;;;;;;;;;;25.50;50.80;;;;;;4986134;28;20192;-72
2022/08/08 19:46:50;;;;;;;;;;;25.40;50.90;;;;;;4986655;28;19914;-72